Time;durP1;ratioP1;P1;durP2;ratioP2;P2;SDS_P1;SDS_P2;PMS_P1;PMS_P2;Temp;Humidity;BMP_temperature;BMP_pressure;BME280_temperature;BME280_humidity;BME280_pressure;Samples;Min_cycle;Max_cycle;Signal;HPM_P1;HPM_P2
2022/05/11 00:00:36;;;;;;;10.85;5.70;;;;;;;17.04;53.05;100444.08;1704200;83;21480;-70
2022/05/11 00:03:04;;;;;;;12.43;5.58;;;;;;;17.01;53.15;100445.86;1711079;82;21555;-70
2022/05/11 00:05:30;;;;;;;11.57;5.65;;;;;;;17.01;53.21;100443.67;1760944;81;21586;-70
2022/05/11 00:07:56;;;;;;;13.78;5.70;;;;;;;16.96;53.29;100434.36;1764249;81;21440;-70
2022/05/11 00:10:23;;;;;;;13.72;6.40;;;;;;;16.94;53.38;100435.09;1762877;81;21034;-70
2022/05/11 00:12:50;;;;;;;9.35;6.28;;;;;;;16.93;53.46;100435.30;1763565;81;21002;-70
2022/05/11 00:15:20;;;;;;;10.88;6.47;;;;;;;16.92;53.54;100433.66;1751670;80;21830;-70
2022/05/11 00:17:46;;;;;;;10.32;5.55;;;;;;;16.90;53.61;100433.02;1753115;81;21488;-70
2022/05/11 00:20:13;;;;;;;14.63;5.70;;;;;;;16.87;53.68;100425.36;1763654;80;21021;-70
2022/05/11 00:22:39;;;;;;;13.18;6.03;;;;;;;16.85;53.76;100430.15;1764355;80;21045;-70
2022/05/11 00:25:06;;;;;;;9.53;5.87;;;;;;;16.82;53.83;100425.98;1753947;80;20896;-70
2022/05/11 00:27:32;;;;;;;13.32;5.45;;;;;;;16.79;53.90;100425.58;1733891;82;21030;-70
2022/05/11 00:29:58;;;;;;;12.73;5.70;;;;;;;16.76;53.98;100421.45;1733521;82;20987;-70
2022/05/11 00:32:25;;;;;;;7.67;5.35;;;;;;;16.76;54.06;100415.22;1751232;81;21514;-70
2022/05/11 00:34:52;;;;;;;11.08;6.00;;;;;;;16.75;54.12;100417.60;1756993;80;21043;-70
2022/05/11 00:37:19;;;;;;;8.70;5.42;;;;;;;16.72;54.20;100411.29;1764330;80;21026;-70
2022/05/11 00:39:45;;;;;;;11.90;6.03;;;;;;;16.68;54.28;100407.36;1764337;80;21497;-70
2022/05/11 00:42:11;;;;;;;9.78;5.90;;;;;;;16.65;54.35;100406.43;1763689;80;21625;-70
2022/05/11 00:44:37;;;;;;;10.03;5.55;;;;;;;16.62;54.41;100409.03;1761915;80;21073;-70
2022/05/11 00:47:09;;;;;;;9.78;6.00;;;;;;;16.58;54.49;100402.91;1763273;80;21027;-70
2022/05/11 00:49:39;;;;;;;9.68;5.50;;;;;;;16.56;54.55;100409.87;1764469;80;20971;-70
2022/05/11 00:52:10;;;;;;;10.32;6.28;;;;;;;16.53;54.66;100398.66;1764183;80;21146;-70
2022/05/11 00:54:51;;;;;;;10.38;6.20;;;;;;;16.50;54.75;100398.03;1760812;81;21006;-70
2022/05/11 00:57:25;;;;;;;11.88;6.15;;;;;;;16.47;54.84;100394.41;1733642;82;21003;-71
2022/05/11 00:59:51;;;;;;;9.80;5.78;;;;;;;16.45;54.92;100394.31;1733717;82;21617;-70
2022/05/11 01:02:17;;;;;;;13.50;6.65;;;;;;;16.44;54.98;100398.03;1733831;82;21026;-70
2022/05/11 01:04:43;;;;;;;13.65;6.42;;;;;;;16.41;55.05;100388.52;1742878;81;21181;-70
2022/05/11 01:07:11;;;;;;;8.55;6.35;;;;;;;16.40;55.13;100395.44;1728270;82;21046;-70
2022/05/11 01:09:37;;;;;;;12.98;6.62;;;;;;;16.36;55.19;100393.69;1751062;81;21039;-70
2022/05/11 01:12:07;;;;;;;10.35;6.12;;;;;;;16.35;55.26;100393.39;1732766;81;21003;-70
2022/05/11 01:14:34;;;;;;;10.70;6.53;;;;;;;16.32;55.35;100388.94;1695799;81;20994;-70
2022/05/11 01:17:00;;;;;;;10.63;6.72;;;;;;;16.28;55.43;100388.53;1758080;81;21672;-70
2022/05/11 01:19:30;;;;;;;12.15;6.45;;;;;;;16.26;55.51;100385.20;1758223;81;21021;-70
2022/05/11 01:22:14;;;;;;;10.63;6.35;;;;;;;16.23;55.58;100383.44;1757528;81;21006;-70
2022/05/11 01:24:42;;;;;;;17.23;6.47;;;;;;;16.18;55.66;100382.73;1752782;81;21059;-70
2022/05/11 01:27:32;;;;;;;10.60;6.15;;;;;;;16.18;55.78;100381.39;1728355;83;21041;-70
2022/05/11 01:30:04;;;;;;;8.60;6.25;;;;;;;16.20;55.85;100380.66;1728768;81;21089;-71
2022/05/11 01:32:30;;;;;;;12.85;6.55;;;;;;;16.23;55.93;100377.55;1728468;82;21026;-71
2022/05/11 01:35:07;;;;;;;9.83;6.20;;;;;;;16.25;55.98;100371.45;1728801;81;20999;-71
2022/05/11 01:37:37;;;;;;;13.28;6.80;;;;;;;16.26;56.06;100378.47;1728346;83;20986;-71
2022/05/11 01:40:05;;;;;;;11.12;6.87;;;;;;;16.27;56.14;100377.95;1748901;81;20998;-71
2022/05/11 01:42:31;;;;;;;16.17;6.37;;;;;;;16.27;56.21;100377.95;1758130;81;21493;-71
2022/05/11 01:44:57;;;;;;;10.80;6.40;;;;;;;16.27;56.26;100378.80;1749088;81;21384;-70
2022/05/11 01:47:23;;;;;;;8.03;6.20;;;;;;;16.28;56.29;100379.11;1728345;82;20994;-71
2022/05/11 01:49:49;;;;;;;10.10;6.37;;;;;;;16.29;56.36;100378.05;1745704;81;21608;-71
2022/05/11 01:52:15;;;;;;;11.10;7.30;;;;;;;16.30;56.40;100375.68;1758418;81;21535;-71
2022/05/11 01:54:41;;;;;;;14.10;8.00;;;;;;;16.28;56.47;100372.38;1754693;80;22058;-70
2022/05/11 01:57:07;;;;;;;19.65;7.30;;;;;;;16.28;56.52;100371.03;1745870;81;21620;-72
2022/05/11 01:59:33;;;;;;;13.68;6.60;;;;;;;16.28;56.58;100375.08;1757999;81;21018;-71
2022/05/11 02:02:00;;;;;;;8.10;6.37;;;;;;;16.30;56.62;100366.77;1758607;81;21027;-71
2022/05/11 02:09:55;;;;;;;11.95;6.97;;;;;;;16.35;56.69;100361.09;1758415;80;21602;-70
2022/05/11 02:12:21;;;;;;;9.95;6.62;;;;;;;16.39;56.72;100357.47;1757089;81;20978;-71
2022/05/11 02:14:47;;;;;;;9.40;6.45;;;;;;;16.41;56.70;100360.25;1753653;81;21475;-71
2022/05/11 02:17:14;;;;;;;11.38;6.72;;;;;;;16.43;56.74;100354.12;1751821;81;21506;-71
2022/05/11 02:19:40;;;;;;;11.38;6.85;;;;;;;16.43;56.71;100356.82;1728840;81;21908;-71
2022/05/11 02:22:06;;;;;;;10.10;6.60;;;;;;;16.44;56.72;100346.89;1728319;82;21035;-70
2022/05/11 02:24:32;;;;;;;9.95;6.35;;;;;;;16.42;56.73;100343.08;1728435;82;20880;-71
2022/05/11 02:27:03;;;;;;;9.00;6.20;;;;;;;16.41;56.75;100346.80;1728878;81;21054;-71
2022/05/11 02:29:29;;;;;;;12.98;7.28;;;;;;;16.40;56.78;100343.78;1727916;81;21007;-71
2022/05/11 02:31:55;;;;;;;11.43;6.75;;;;;;;16.40;56.78;100339.75;1758385;81;21198;-71
2022/05/11 02:37:05;;;;;;;14.65;7.22;;;;;;;16.38;56.83;100342.34;1757378;80;21022;-71
2022/05/11 02:39:31;;;;;;;11.63;6.55;;;;;;;16.38;56.85;100335.11;1739669;81;20891;-71
2022/05/11 02:41:57;;;;;;;14.38;7.20;;;;;;;16.40;56.89;100341.09;1728193;81;21006;-71
2022/05/11 02:44:23;;;;;;;8.88;7.00;;;;;;;16.43;56.87;100341.22;1728167;82;21185;-71
2022/05/11 02:46:49;;;;;;;9.78;7.85;;;;;;;16.42;56.89;100336.34;1733888;81;20938;-71
2022/05/11 02:49:15;;;;;;;13.15;7.10;;;;;;;16.43;56.89;100341.22;1742338;80;21062;-71
2022/05/11 02:51:41;;;;;;;14.28;9.10;;;;;;;16.43;56.91;100342.02;1728267;83;20962;-71
2022/05/11 02:54:07;;;;;;;15.72;8.35;;;;;;;16.44;56.92;100340.98;1728434;82;21038;-71
2022/05/11 02:56:33;;;;;;;15.30;7.80;;;;;;;16.44;56.91;100342.33;1728294;82;21093;-71
2022/05/11 02:58:59;;;;;;;11.20;7.08;;;;;;;16.44;56.92;100339.64;1742598;81;20868;-71
2022/05/11 03:01:25;;;;;;;11.25;7.55;;;;;;;16.46;56.93;100341.63;1735011;81;20994;-71
2022/05/11 03:03:51;;;;;;;10.53;7.50;;;;;;;16.48;56.92;100342.74;1759496;81;21579;-71
2022/05/11 03:06:17;;;;;;;15.50;7.22;;;;;;;16.46;56.94;100337.59;1766990;80;20970;-71
2022/05/11 03:08:43;;;;;;;12.10;6.80;;;;;;;16.46;56.97;100342.97;1760072;81;21579;-71
2022/05/11 03:11:09;;;;;;;10.28;6.90;;;;;;;16.45;56.98;100338.61;1701203;84;21140;-71
2022/05/11 03:13:35;;;;;;;9.03;7.10;;;;;;;16.45;56.99;100342.66;1701371;84;21005;-71
2022/05/11 03:16:01;;;;;;;9.25;7.15;;;;;;;16.43;57.00;100335.83;1701811;82;20911;-71
2022/05/11 03:18:27;;;;;;;10.48;7.03;;;;;;;16.41;57.04;100334.69;1703977;82;21015;-71
2022/05/11 03:20:57;;;;;;;9.78;7.37;;;;;;;16.40;57.07;100337.57;1730597;83;21150;-70
2022/05/11 03:23:25;;;;;;;;;;;;;;;16.39;57.12;100330.04;1733131;83;21054;-71
2022/05/11 03:25:51;;;;;;;11.48;8.63;;;;;;;16.39;57.15;100331.38;1709519;82;20400;-70
2022/05/11 03:28:17;;;;;;;11.60;8.40;;;;;;;16.40;57.16;100333.53;1701524;82;21621;-71
2022/05/11 03:30:43;;;;;;;10.90;8.05;;;;;;;16.40;57.17;100329.49;1701522;82;21009;-71
2022/05/11 03:35:54;;;;;;;11.97;7.37;;;;;;;16.43;57.21;100329.91;1725658;82;21019;-71
2022/05/11 03:38:20;;;;;;;14.65;7.80;;;;;;;16.44;57.24;100331.56;1730501;82;20977;-70
2022/05/11 03:40:46;;;;;;;12.15;7.50;;;;;;;16.45;57.26;100325.16;1701604;83;21038;-71
2022/05/11 03:43:12;;;;;;;16.10;7.75;;;;;;;16.47;57.28;100325.76;1701261;84;21022;-71
2022/05/11 03:45:37;;;;;;;10.28;6.67;;;;;;;16.50;57.29;100328.03;1702064;82;21596;-71
2022/05/11 03:48:04;;;;;;;9.85;7.15;;;;;;;16.54;57.32;100329.78;1724964;83;21002;-71
2022/05/11 03:50:32;;;;;;;15.58;8.00;;;;;;;16.56;57.31;100337.70;1730205;82;21022;-71
2022/05/11 03:52:58;;;;;;;9.85;7.05;;;;;;;16.57;57.34;100335.32;1730233;82;21006;-71
2022/05/11 03:55:25;;;;;;;15.10;6.72;;;;;;;16.59;57.34;100342.14;1729337;82;20994;-71
2022/05/11 03:57:51;;;;;;;10.18;6.62;;;;;;;16.61;57.35;100342.74;1730682;82;21050;-71
2022/05/11 04:00:21;;;;;;;10.70;7.30;;;;;;;16.65;57.37;100347.19;1707047;82;21007;-70
2022/05/11 04:02:49;;;;;;;9.83;7.17;;;;;;;16.69;57.36;100350.61;1700827;84;21018;-71
2022/05/11 04:05:15;;;;;;;9.50;6.87;;;;;;;16.76;57.35;100350.59;1696456;82;21085;-71
2022/05/11 04:07:42;;;;;;;12.82;6.78;;;;;;;16.82;57.32;100344.34;1692873;84;21035;-71
2022/05/11 04:10:09;;;;;;;7.85;6.50;;;;;;;16.87;57.28;100341.34;1712240;83;21193;-71
2022/05/11 04:12:35;;;;;;;12.75;7.33;;;;;;;16.93;57.22;100347.22;1721850;83;20995;-71
2022/05/11 04:15:01;;;;;;;17.62;7.58;;;;;;;16.97;57.18;100343.06;1720756;82;21050;-71
2022/05/11 04:17:27;;;;;;;11.08;6.85;;;;;;;17.05;57.12;100349.26;1724403;83;21058;-71
2022/05/11 04:19:53;;;;;;;9.88;6.53;;;;;;;17.09;57.07;100340.55;1724217;82;20999;-71
2022/05/11 04:22:19;;;;;;;8.73;6.12;;;;;;;17.14;57.01;100343.41;1724254;83;21164;-70
2022/05/11 04:24:45;;;;;;;13.68;7.00;;;;;;;17.18;56.95;100341.94;1723675;83;21042;-71
2022/05/11 04:27:11;;;;;;;11.60;6.25;;;;;;;17.22;56.88;100341.00;1724326;83;21058;-71
2022/05/11 04:29:38;;;;;;;8.50;6.67;;;;;;;17.26;56.83;100347.09;1723923;83;21062;-71
2022/05/11 04:32:05;;;;;;;10.28;7.40;;;;;;;17.32;56.76;100357.02;1715711;83;21030;-71
2022/05/11 04:34:31;;;;;;;12.47;8.45;;;;;;;17.36;56.68;100362.28;1722421;83;21779;-71
2022/05/11 04:36:57;;;;;;;10.75;7.35;;;;;;;17.41;56.66;100365.70;1724535;83;20936;-71
2022/05/11 04:39:23;;;;;;;8.35;6.97;;;;;;;17.45;56.58;100350.20;1723928;83;21002;-71
2022/05/11 04:41:49;;;;;;;8.05;7.15;;;;;;;17.49;56.55;100356.82;1717111;83;21026;-71
2022/05/11 04:44:16;;;;;;;9.20;6.50;;;;;;;17.55;56.49;100358.36;1720317;83;21007;-71
2022/05/11 04:46:42;;;;;;;13.68;6.62;;;;;;;17.60;56.42;100361.25;1724497;83;21194;-71
2022/05/11 04:49:17;;;;;;;12.28;7.80;;;;;;;17.66;56.38;100358.51;1715996;83;21027;-71
2022/05/11 04:51:44;;;;;;;18.35;8.90;;;;;;;17.71;56.31;100357.87;1695440;84;21074;-71
2022/05/11 04:54:11;;;;;;;14.53;8.53;;;;;;;17.74;56.28;100357.43;1717581;83;21653;-71
2022/05/11 04:56:38;;;;;;;11.05;7.65;;;;;;;17.80;56.22;100365.48;1724310;83;21042;-71
2022/05/11 04:59:08;;;;;;;14.87;7.35;;;;;;;17.86;56.16;100363.80;1721452;83;21055;-71
2022/05/11 05:01:37;;;;;;;11.20;6.78;;;;;;;17.90;56.12;100358.27;1712520;83;21018;-71
2022/05/11 05:04:03;;;;;;;13.00;7.13;;;;;;;17.92;56.06;100366.44;1698956;84;21010;-71
2022/05/11 05:06:33;;;;;;;9.43;5.90;;;;;;;17.93;56.03;100373.50;1700012;84;21491;-71
2022/05/11 05:09:03;;;;;;;;;;;;;;;17.93;56.01;100386.16;1709466;82;21105;-71
2022/05/11 05:11:30;;;;;;;14.40;7.70;;;;;;;17.93;56.02;100391.05;1702477;84;21275;-71
2022/05/11 05:13:55;;;;;;;19.05;6.33;;;;;;;17.96;55.98;100389.25;1745905;81;21027;-71
2022/05/11 05:16:21;;;;;;;12.60;6.25;;;;;;;18.00;55.96;100396.39;1758702;81;21507;-71
2022/05/11 05:18:48;;;;;;;12.55;6.47;;;;;;;18.00;55.92;100392.34;1758717;81;21516;-71
2022/05/11 05:21:14;;;;;;;12.80;6.25;;;;;;;17.99;55.95;100387.98;1758933;81;21535;-71
2022/05/11 05:23:40;;;;;;;11.97;7.40;;;;;;;18.01;55.91;100391.83;1745105;81;21871;-71
2022/05/11 05:26:06;;;;;;;13.75;7.42;;;;;;;18.09;55.95;100394.23;1728517;82;21002;-71
2022/05/11 05:31:18;;;;;;;9.08;6.75;;;;;;;18.27;55.96;100391.61;1732072;81;21014;-71
2022/05/11 05:33:44;;;;;;;16.20;6.95;;;;;;;18.35;55.94;100395.39;1758115;81;20998;-71
2022/05/11 05:36:11;;;;;;;9.78;7.37;;;;;;;18.43;55.91;100393.26;1758720;81;21136;-71
2022/05/11 05:38:38;;;;;;;8.75;7.30;;;;;;;18.55;55.88;100389.84;1757871;81;21007;-71
2022/05/11 05:41:06;;;;;;;13.55;6.97;;;;;;;18.64;55.83;100388.52;1751103;81;21456;-71
2022/05/11 05:43:32;;;;;;;10.58;7.22;;;;;;;18.70;55.74;100395.73;1734892;81;21663;-71
2022/05/11 05:45:58;;;;;;;15.23;7.28;;;;;;;18.73;55.69;100393.41;1737171;81;20932;-71
2022/05/11 05:48:24;;;;;;;27.17;7.90;;;;;;;18.75;55.64;100399.95;1752412;81;40293;-71
2022/05/11 05:50:51;;;;;;;31.42;8.10;;;;;;;18.74;55.62;100405.88;1730986;81;21003;-71
2022/05/11 05:53:21;;;;;;;8.88;6.45;;;;;;;18.78;55.60;100402.20;1751264;81;20995;-71
2022/05/11 05:55:48;;;;;;;12.98;6.83;;;;;;;18.83;55.55;100400.99;1758661;81;21007;-72
2022/05/11 05:58:15;;;;;;;9.08;6.40;;;;;;;18.95;55.50;100397.34;1758714;81;21030;-72
2022/05/11 06:00:42;;;;;;;13.62;7.62;;;;;;;19.08;55.46;100403.64;1733179;81;21732;-72
2022/05/11 06:03:09;;;;;;;14.15;7.85;;;;;;;19.27;55.39;100402.08;1749412;81;21006;-72
2022/05/11 06:05:35;;;;;;;14.20;8.38;;;;;;;19.48;55.28;100405.38;1749941;81;21081;-72
2022/05/11 06:08:01;;;;;;;12.53;8.03;;;;;;;19.65;55.19;100411.29;1734185;82;20912;-72
2022/05/11 06:10:27;;;;;;;14.87;7.30;;;;;;;19.86;55.09;100412.14;1723911;82;20975;-72
2022/05/11 06:12:53;;;;;;;14.05;7.58;;;;;;;20.36;54.97;100404.53;1736118;82;21781;-72
2022/05/11 06:15:20;;;;;;;7.90;6.97;;;;;;;20.76;54.71;100406.01;1735558;82;20999;-73
2022/05/11 06:17:46;;;;;;;7.78;6.72;;;;;;;21.24;54.49;100411.19;1731462;81;21548;-72
2022/05/11 06:20:12;;;;;;;10.50;6.75;;;;;;;21.49;54.03;100407.34;1730210;82;21482;-72
2022/05/11 06:22:38;;;;;;;9.20;6.62;;;;;;;21.69;53.70;100402.31;1725980;82;21033;-75
2022/05/11 06:25:05;;;;;;;13.40;6.50;;;;;;;22.11;53.49;100402.30;1724649;82;21058;-73
2022/05/11 06:27:31;;;;;;;11.50;6.20;;;;;;;22.51;52.99;100394.55;1727442;81;21008;-73
2022/05/11 06:30:00;;;;;;;20.85;8.20;;;;;;;22.64;52.52;100395.02;1734448;81;20919;-73
2022/05/11 06:32:26;;;;;;;21.80;8.93;;;;;;;22.62;52.15;100396.35;1724399;82;21540;-73
2022/05/11 06:34:53;;;;;;;46.63;14.03;;;;;;;22.89;51.71;100381.83;1747955;81;21101;-73
2022/05/11 06:37:20;;;;;;;14.55;7.60;;;;;;;23.15;51.27;100387.05;1728964;83;22293;-73
2022/05/11 06:39:46;;;;;;;12.10;7.50;;;;;;;23.30;50.77;100380.45;1735543;81;20938;-74
2022/05/11 06:42:13;;;;;;;12.20;6.67;;;;;;;23.46;50.36;100388.84;1735856;82;21062;-73
2022/05/11 06:44:39;;;;;;;12.00;7.35;;;;;;;23.81;49.97;100387.87;1721227;82;21086;-73
2022/05/11 06:47:05;;;;;;;159.32;33.78;;;;;;;23.97;49.31;100388.83;1749218;81;21034;-73
2022/05/11 06:49:32;;;;;;;64.75;17.87;;;;;;;23.96;48.85;100385.84;1759817;81;21676;-73
2022/05/11 06:51:58;;;;;;;17.35;8.15;;;;;;;23.93;48.54;100389.05;1730190;82;20957;-73
2022/05/11 06:59:55;;;;;;;8.20;6.55;;;;;;;24.19;47.52;100388.25;1735220;81;21037;-73
2022/05/11 07:02:21;;;;;;;14.00;5.85;;;;;;;24.27;47.17;100390.52;1740045;81;23336;-73
2022/05/11 07:04:48;;;;;;;11.45;6.25;;;;;;;24.24;46.91;100382.86;1753618;81;21364;-73
2022/05/11 07:07:14;;;;;;;9.85;6.53;;;;;;;24.36;46.46;100378.86;1751589;80;20990;-72
2022/05/11 07:09:41;;;;;;;10.13;6.12;;;;;;;24.44;46.27;100379.45;1698669;84;21001;-73
2022/05/11 07:12:17;;;;;;;15.58;8.10;;;;;;;24.31;45.77;100372.56;1745769;80;21081;-73
2022/05/11 07:14:53;;;;;;;15.58;7.08;;;;;;;24.31;45.71;100380.16;1728675;81;21597;-73
2022/05/11 07:17:35;;;;;;;7.03;6.33;;;;;;;24.44;45.56;100380.28;1708520;82;20953;-73
2022/05/11 07:20:14;;;;;;;8.78;5.70;;;;;;;24.63;45.39;100376.05;1737373;80;21014;-73
2022/05/11 07:22:40;;;;;;;9.05;6.45;;;;;;;24.67;44.94;100379.89;1745538;81;21074;-73
2022/05/11 07:25:08;;;;;;;7.70;5.85;;;;;;;24.66;44.84;100379.63;1744256;81;21046;-73
2022/05/11 07:27:34;;;;;;;8.33;5.60;;;;;;;24.86;44.71;100381.69;1756480;81;21818;-73
2022/05/11 07:30:00;;;;;;;10.58;7.72;;;;;;;24.80;44.47;100385.45;1750773;81;21218;-73
2022/05/11 07:32:27;;;;;;;13.40;6.17;;;;;;;24.67;44.40;100379.89;1750661;81;21354;-72
2022/05/11 07:34:53;;;;;;;12.90;5.90;;;;;;;24.69;44.33;100389.19;1728097;81;21012;-73
2022/05/11 07:37:19;;;;;;;8.90;6.53;;;;;;;24.63;44.09;100388.88;1735644;81;21042;-73
2022/05/11 07:39:46;;;;;;;13.03;6.30;;;;;;;24.59;44.17;100394.58;1722092;81;22765;-73
2022/05/11 07:42:13;;;;;;;19.20;7.72;;;;;;;24.76;44.01;100397.97;1706932;82;20946;-73
2022/05/11 07:44:39;;;;;;;13.10;7.40;;;;;;;24.80;43.89;100400.45;1716043;81;21022;-73
2022/05/11 07:47:06;;;;;;;13.80;7.10;;;;;;;24.86;43.80;100402.15;1725934;82;21081;-73
2022/05/11 07:49:32;;;;;;;9.35;6.12;;;;;;;24.90;43.61;100396.45;1730726;81;21033;-73
2022/05/11 07:51:58;;;;;;;9.40;6.42;;;;;;;24.99;43.48;100392.66;1742097;81;21875;-73
2022/05/11 07:54:24;;;;;;;9.05;7.20;;;;;;;25.26;43.40;100391.42;1748157;81;20891;-74
2022/05/11 08:02:21;;;;;;;8.38;6.42;;;;;;;24.75;43.10;100384.03;1741586;81;21008;-73
2022/05/11 08:04:47;;;;;;;8.25;6.92;;;;;;;24.59;43.20;100384.50;1728313;82;21870;-73
2022/05/11 08:07:13;;;;;;;8.48;5.78;;;;;;;24.65;43.26;100381.25;1720345;81;21443;-73
2022/05/11 08:09:40;;;;;;;6.92;6.22;;;;;;;24.75;43.24;100379.41;1721613;82;21027;-73
2022/05/11 08:12:07;;;;;;;11.53;7.53;;;;;;;24.78;43.33;100383.50;1745900;82;20983;-73
2022/05/11 08:14:33;;;;;;;7.25;6.55;;;;;;;24.90;43.32;100377.34;1731899;81;21011;-73
2022/05/11 08:16:59;;;;;;;7.30;6.50;;;;;;;24.94;43.24;100390.75;1737609;82;21930;-73
2022/05/11 08:19:26;;;;;;;9.00;6.15;;;;;;;24.83;43.21;100380.85;1748377;81;21002;-73
2022/05/11 08:21:53;;;;;;;8.33;6.58;;;;;;;24.69;43.21;100380.47;1749097;81;20959;-73
2022/05/11 08:24:19;;;;;;;7.75;6.35;;;;;;;24.56;43.23;100378.74;1730818;82;21333;-73
2022/05/11 08:26:46;;;;;;;10.18;6.70;;;;;;;24.57;43.15;100379.00;1733523;82;20949;-73
2022/05/11 08:33:19;;;;;;;7.40;6.58;;;;;;;24.64;43.19;100385.05;1731554;82;21687;-74
2022/05/11 08:34:28;;;;;;;9.23;7.12;;;;;;;24.64;43.04;100384.52;1737978;82;20952;-74
2022/05/11 08:36:54;;;;;;;10.38;7.60;;;;;;;24.61;43.08;100388.30;1724839;81;20948;-73
2022/05/11 08:39:20;;;;;;;13.53;7.17;;;;;;;24.66;43.14;100382.90;1723938;82;21082;-73
2022/05/11 08:41:49;;;;;;;13.43;6.92;;;;;;;24.64;43.12;100380.42;1749095;81;21903;-73
2022/05/11 08:44:18;;;;;;;9.15;7.17;;;;;;;24.71;43.19;100385.64;1748749;82;20959;-73
2022/05/11 08:47:06;;;;;;;10.00;7.55;;;;;;;24.89;43.24;100390.70;1730886;82;21007;-73
2022/05/11 08:50:09;;;;;;;18.00;8.05;;;;;;;25.11;43.28;100394.11;1707996;82;21007;-73
2022/05/11 08:52:50;;;;;;;17.35;6.92;;;;;;;25.34;43.17;100399.11;1749183;81;20983;-73
2022/05/11 08:55:52;;;;;;;11.22;7.03;;;;;;;25.53;42.96;100390.48;1747337;81;21836;-73
2022/05/11 08:58:27;;;;;;;10.28;7.22;;;;;;;25.73;42.76;100390.53;1742592;81;21424;-73
2022/05/11 09:00:56;;;;;;;10.32;7.08;;;;;;;25.80;42.50;100381.52;1734164;82;21085;-73
2022/05/11 09:03:41;;;;;;;9.45;6.90;;;;;;;25.80;42.33;100380.16;1748713;82;21690;-73
2022/05/11 09:06:24;;;;;;;12.60;7.55;;;;;;;25.72;42.11;100377.98;1748090;81;21006;-74
2022/05/11 09:08:50;;;;;;;9.63;6.87;;;;;;;25.75;42.09;100377.44;1745314;82;21846;-72
2022/05/11 09:11:27;;;;;;;11.35;7.47;;;;;;;25.95;41.91;100374.73;1748921;81;20860;-72
2022/05/11 09:13:55;;;;;;;13.03;8.53;;;;;;;26.12;41.75;100367.08;1719380;82;21448;-72
2022/05/11 09:16:43;;;;;;;8.73;7.83;;;;;;;26.28;41.57;100357.02;1722335;82;21050;-73
2022/05/11 09:19:17;;;;;;;9.25;6.70;;;;;;;26.15;41.15;100352.86;1724423;82;21484;-74
2022/05/11 09:21:54;;;;;;;9.83;7.22;;;;;;;26.27;41.24;100348.53;1735165;82;22457;-74
2022/05/11 09:24:30;;;;;;;8.80;6.28;;;;;;;26.60;41.04;100351.23;1736198;81;21018;-73
2022/05/11 09:27:07;;;;;;;15.90;7.20;;;;;;;26.86;40.90;100348.72;1744392;81;21269;-73
2022/05/11 09:29:42;;;;;;;12.80;7.20;;;;;;;26.98;40.73;100336.09;1735635;81;21002;-74
2022/05/11 09:32:29;;;;;;;8.63;6.97;;;;;;;26.83;40.47;100350.65;1743276;80;21388;-74
2022/05/11 09:35:26;;;;;;;8.43;7.58;;;;;;;26.85;40.44;100351.17;1745803;80;21842;-74
2022/05/11 09:38:21;;;;;;;12.25;7.50;;;;;;;26.80;40.37;100346.53;1762756;80;20934;-74
2022/05/11 09:41:00;;;;;;;10.78;6.58;;;;;;;26.83;40.25;100341.61;1747470;81;21474;-74
2022/05/11 09:43:37;;;;;;;9.65;6.80;;;;;;;26.64;40.01;100349.55;1759753;81;21054;-74
2022/05/11 09:46:32;;;;;;;7.83;6.53;;;;;;;26.50;39.93;100345.75;1738019;81;20947;-74
2022/05/11 09:49:04;;;;;;;11.22;7.25;;;;;;;26.57;39.97;100340.81;1741938;81;21930;-73
2022/05/11 09:51:50;;;;;;;9.33;7.10;;;;;;;26.57;39.85;100342.18;1721041;82;21011;-73
2022/05/11 09:54:24;;;;;;;8.83;6.85;;;;;;;26.63;39.88;100335.63;1748720;81;20990;-74
2022/05/11 09:56:57;;;;;;;8.70;6.83;;;;;;;26.73;39.81;100331.49;1754298;81;21063;-73
2022/05/11 09:59:28;;;;;;;8.75;7.22;;;;;;;26.92;39.67;100321.59;1754730;81;20900;-74
2022/05/11 10:02:36;;;;;;;8.03;6.67;;;;;;;26.95;39.55;100315.55;1758159;80;21710;-74
2022/05/11 10:05:28;;;;;;;10.10;5.72;;;;;;;27.04;39.65;100318.55;1739076;81;21006;-73
2022/05/11 10:08:15;;;;;;;6.80;6.20;;;;;;;27.13;39.53;100318.22;1727279;81;21399;-73
2022/05/11 10:10:46;;;;;;;7.05;6.15;;;;;;;26.87;39.17;100313.41;1731044;81;20949;-74
2022/05/11 10:13:40;;;;;;;7.08;6.28;;;;;;;26.78;39.32;100302.18;1719845;81;20938;-74
2022/05/11 10:22:44;;;;;;;9.18;6.83;;;;;;;27.26;39.04;100299.28;1684620;83;21496;-74
2022/05/11 10:25:21;;;;;;;8.88;6.00;;;;;;;27.45;38.87;100293.16;1729250;81;21368;-75
2022/05/11 10:27:53;;;;;;;7.20;6.28;;;;;;;27.64;38.79;100286.73;1754847;81;20961;-74
2022/05/11 10:30:28;;;;;;;6.60;5.12;;;;;;;27.64;38.71;100277.69;1729279;82;21819;-73
2022/05/11 10:32:59;;;;;;;5.75;5.25;;;;;;;27.57;38.47;100281.30;1711385;82;20989;-74
2022/05/11 10:35:55;;;;;;;6.60;4.70;;;;;;;27.43;38.26;100280.27;1735810;81;21030;-74
2022/05/11 10:38:38;;;;;;;5.62;4.37;;;;;;;27.43;37.88;100280.27;1713468;81;21003;-73
2022/05/11 10:41:29;;;;;;;5.60;4.00;;;;;;;27.45;37.52;100275.34;1742368;82;21029;-74
2022/05/11 10:44:25;;;;;;;5.70;3.87;;;;;;;27.41;37.38;100279.75;1713483;82;22076;-74
2022/05/11 10:47:11;;;;;;;5.33;4.20;;;;;;;27.53;37.00;100272.02;1739683;82;21379;-73
2022/05/11 10:50:01;;;;;;;6.05;4.65;;;;;;;27.48;36.83;100265.22;1742669;80;20986;-73
2022/05/11 10:52:45;;;;;;;5.50;4.65;;;;;;;27.49;36.64;100257.23;1727629;82;21029;-74
2022/05/11 10:55:40;;;;;;;5.78;4.20;;;;;;;27.52;36.61;100257.48;1742041;82;21013;-73
2022/05/11 10:58:27;;;;;;;5.62;4.70;;;;;;;27.76;36.51;100249.38;1761081;81;22483;-74
2022/05/11 11:01:15;;;;;;;7.25;4.60;;;;;;;27.92;36.45;100248.13;1725266;81;20968;-74
2022/05/11 11:04:26;;;;;;;5.60;4.28;;;;;;;27.81;36.15;100249.31;1720157;82;21009;-74
2022/05/11 11:07:23;;;;;;;11.80;4.70;;;;;;;27.38;36.01;100252.89;1751658;81;21092;-74
2022/05/11 11:10:30;;;;;;;11.88;4.65;;;;;;;27.35;35.99;100240.59;1761527;80;21034;-74
2022/05/11 11:13:32;;;;;;;6.67;4.50;;;;;;;27.07;35.85;100239.95;1759442;81;22642;-74
2022/05/11 11:15:58;;;;;;;5.37;4.10;;;;;;;27.23;36.06;100228.61;1732589;81;20977;-74
2022/05/11 11:18:37;;;;;;;5.95;3.83;;;;;;;27.68;36.08;100217.09;1742946;81;21563;-74
2022/05/11 11:21:03;;;;;;;5.65;4.37;;;;;;;27.86;35.98;100218.31;1745028;80;26005;-74
2022/05/11 11:23:33;;;;;;;16.10;4.92;;;;;;;27.92;35.79;100220.72;1732691;82;21061;-74
2022/05/11 11:26:11;;;;;;;7.42;3.90;;;;;;;27.95;35.50;100214.65;1729967;82;21870;-74
2022/05/11 11:28:46;;;;;;;21.25;4.53;;;;;;;27.94;35.30;100210.27;1748378;80;21025;-74
2022/05/11 11:31:16;;;;;;;15.03;4.20;;;;;;;27.97;35.15;100212.42;1753612;81;21088;-74
2022/05/11 11:34:05;;;;;;;8.30;3.77;;;;;;;28.06;34.85;100210.70;1752235;81;21041;-74
2022/05/11 11:36:40;;;;;;;8.05;3.67;;;;;;;28.12;34.67;100208.20;1725509;82;21041;-74
2022/05/11 11:39:11;;;;;;;24.30;4.50;;;;;;;28.18;34.47;100205.66;1768676;79;21849;-75
2022/05/11 11:41:48;;;;;;;23.75;4.70;;;;;;;28.30;34.33;100206.63;1746582;80;21063;-74
2022/05/11 11:44:31;;;;;;;5.15;3.37;;;;;;;28.18;33.84;100198.80;1742259;81;20919;-74
2022/05/11 11:46:58;;;;;;;4.83;3.72;;;;;;;27.89;33.58;100196.63;1762326;80;21080;-74
2022/05/11 11:49:33;;;;;;;6.47;3.30;;;;;;;27.57;33.55;100185.40;1746245;80;21068;-74
2022/05/11 11:52:03;;;;;;;13.55;3.12;;;;;;;27.54;33.69;100179.13;1757117;81;21942;-74
2022/05/11 11:54:41;;;;;;;8.30;3.80;;;;;;;27.78;33.67;100176.71;1739039;80;21049;-74
2022/05/11 11:57:24;;;;;;;6.30;3.45;;;;;;;27.73;33.22;100181.41;1757392;81;21303;-73
2022/05/11 12:00:02;;;;;;;5.17;3.70;;;;;;;27.49;33.09;100175.05;1740083;81;21021;-74
2022/05/11 12:02:43;;;;;;;7.27;3.13;;;;;;;27.59;33.07;100174.95;1756968;79;21007;-74
2022/05/11 12:05:26;;;;;;;16.45;3.70;;;;;;;27.80;33.04;100169.55;1739398;81;21858;-73
2022/05/11 12:16:28;;;;;;;25.35;3.37;;;;;;;28.34;32.05;100156.11;1742235;80;21032;-74
2022/05/11 12:19:09;;;;;;;17.82;3.45;;;;;;;28.46;31.50;100145.55;1765742;81;22076;-74
2022/05/11 12:21:36;;;;;;;11.08;3.70;;;;;;;28.52;31.16;100144.36;1748891;80;21033;-74